Search for airport 
image banner adimage banner adimage banner ad
image banner ad

PA52 - Oberlander

Located in Union City, United States

ICAO - PA52, IATA -

Data provided by Airmate  

General information

Coordinates: N41°51'34" W79°54'26"
Elevation is 1626 feet MSL.
 
View others Airports in Pennsylvania

Operational data

Special qualification required
Current time UTC:
Current local time:
Weather at : KERI - Erie Intl/Tom Ridge Field ( 33 km )
METAR: KERI 091712Z 14007KT 4SM -RA BKN028 OVC035 07/03 A2993 RMK AO2 P0001 T00720033
TAF: KERI 091126Z 0912/1012 17005KT P6SM BKN200 FM091600 14006KT 6SM -RA OVC035 FM091800 10008KT 5SM -RA OVC025 FM092100 05014G22KT 2SM RA OVC008 FM100300 02012G20KT P6SM OVC008 FM100700 35007KT P6SM BKN025
View NOTAMs / SUP AIP / TFR affecting this airport [VIEW]
Communications frequencies: [VIEW]

Runways:

RWY identifierQFULength (ft)Width (ft)SurfaceLDA (ft)
101700100GRASS
281700100GRASS

Airport contact information

Address: Union City United States

Satellite view of PA52